Archer, Wyoming
Current Conditions -  °F | °C
As of 9:53 PM on Sunday 21 Dec 2014 (Local Time) from KCYS Reporting Station
Broken Clouds Broken Clouds  
Wind Chill: 23°   Ceiling: 11000
Heat Index: 33°   Visibility: 10mi
Dew Point: 23°   Wind: 16mph
Humidity: 66%   Direction: 320°NW
Pressure: 29.63"   Gusts: 23mph
Location:  41.4091°N, 104.861°W
Report Text: KCYS 220453Z 32014G20KT 10SM FEW070 BKN110 01/M05 A2963 RMK AO2 PK WND 36030/0354 UPB18E22SNE18 SLP023 P0002 T00061050
Loading
Personal Weather Stations






























Interactive Weather Map New forecast layout! Learn more

10-Day Weather Forecast

Advertisements
Track Severe Weather on mobile